sensor_id;sensor_type;location;lat;lon;timestamp;temperature;humidity
37642;DHT22;23486;51.956;5.888;2023-03-05T00:01:08;4.70;99.90
37642;DHT22;23486;51.956;5.888;2023-03-05T00:03:34;4.80;99.90
37642;DHT22;23486;51.956;5.888;2023-03-05T00:06:00;4.80;99.90
37642;DHT22;23486;51.956;5.888;2023-03-05T00:08:27;4.80;99.90
37642;DHT22;23486;51.956;5.888;2023-03-05T00:10:57;4.80;99.90
37642;DHT22;23486;51.956;5.888;2023-03-05T00:13:25;4.80;99.90
37642;DHT22;23486;51.956;5.888;2023-03-05T00:15:51;4.80;99.90
37642;DHT22;23486;51.956;5.888;2023-03-05T00:18:17;4.90;99.90
37642;DHT22;23486;51.956;5.888;2023-03-05T00:20:43;4.80;99.90
37642;DHT22;23486;51.956;5.888;2023-03-05T00:23:09;4.80;99.90
37642;DHT22;23486;51.956;5.888;2023-03-05T00:25:37;4.80;99.90
37642;DHT22;23486;51.956;5.888;2023-03-05T00:28:04;4.80;99.90
37642;DHT22;23486;51.956;5.888;2023-03-05T00:30:31;4.80;99.90
37642;DHT22;23486;51.956;5.888;2023-03-05T00:32:57;4.80;99.90
37642;DHT22;23486;51.956;5.888;2023-03-05T00:35:22;4.80;99.90
37642;DHT22;23486;51.956;5.888;2023-03-05T00:37:48;4.80;99.90
37642;DHT22;23486;51.956;5.888;2023-03-05T00:40:14;4.80;99.90
37642;DHT22;23486;51.956;5.888;2023-03-05T00:42:40;4.80;99.90
37642;DHT22;23486;51.956;5.888;2023-03-05T00:45:09;4.80;99.90
37642;DHT22;23486;51.956;5.888;2023-03-05T00:47:35;4.80;99.90
37642;DHT22;23486;51.956;5.888;2023-03-05T00:50:02;4.80;99.90
37642;DHT22;23486;51.956;5.888;2023-03-05T00:52:30;4.80;99.90
37642;DHT22;23486;51.956;5.888;2023-03-05T00:54:55;4.80;99.90
37642;DHT22;23486;51.956;5.888;2023-03-05T00:57:21;4.80;99.90
37642;DHT22;23486;51.956;5.888;2023-03-05T00:59:47;4.80;99.90
37642;DHT22;23486;51.956;5.888;2023-03-05T01:02:16;4.80;99.90
37642;DHT22;23486;51.956;5.888;2023-03-05T01:04:41;4.80;99.90
37642;DHT22;23486;51.956;5.888;2023-03-05T01:07:10;4.80;99.90
37642;DHT22;23486;51.956;5.888;2023-03-05T01:09:35;4.80;99.90
37642;DHT22;23486;51.956;5.888;2023-03-05T01:12:01;4.90;99.90
37642;DHT22;23486;51.956;5.888;2023-03-05T01:14:26;4.90;99.90
37642;DHT22;23486;51.956;5.888;2023-03-05T01:16:53;4.80;99.90
37642;DHT22;23486;51.956;5.888;2023-03-05T01:19:19;4.80;99.90
37642;DHT22;23486;51.956;5.888;2023-03-05T01:21:47;4.80;99.90
37642;DHT22;23486;51.956;5.888;2023-03-05T01:24:13;4.80;99.90
37642;DHT22;23486;51.956;5.888;2023-03-05T01:26:38;4.80;99.90
37642;DHT22;23486;51.956;5.888;2023-03-05T01:29:04;4.80;99.90
37642;DHT22;23486;51.956;5.888;2023-03-05T01:31:30;4.80;99.90
37642;DHT22;23486;51.956;5.888;2023-03-05T01:33:55;4.80;99.90
37642;DHT22;23486;51.956;5.888;2023-03-05T01:36:23;4.80;99.90
37642;DHT22;23486;51.956;5.888;2023-03-05T01:38:49;4.70;99.90
37642;DHT22;23486;51.956;5.888;2023-03-05T01:41:17;4.80;99.90
37642;DHT22;23486;51.956;5.888;2023-03-05T01:43:49;4.80;99.90
37642;DHT22;23486;51.956;5.888;2023-03-05T01:46:34;4.70;99.90
37642;DHT22;23486;51.956;5.888;2023-03-05T01:49:22;4.80;99.90
37642;DHT22;23486;51.956;5.888;2023-03-05T01:54:51;4.70;99.90
37642;DHT22;23486;51.956;5.888;2023-03-05T01:57:23;4.70;99.90
37642;DHT22;23486;51.956;5.888;2023-03-05T01:59:55;4.70;99.90
37642;DHT22;23486;51.956;5.888;2023-03-05T02:02:21;4.70;99.90
37642;DHT22;23486;51.956;5.888;2023-03-05T02:04:50;4.70;99.90
37642;DHT22;23486;51.956;5.888;2023-03-05T02:07:17;4.70;99.90
37642;DHT22;23486;51.956;5.888;2023-03-05T02:09:43;4.70;99.90
37642;DHT22;23486;51.956;5.888;2023-03-05T02:12:10;4.70;99.90
37642;DHT22;23486;51.956;5.888;2023-03-05T02:14:37;4.70;99.90
37642;DHT22;23486;51.956;5.888;2023-03-05T02:17:04;4.70;99.90
37642;DHT22;23486;51.956;5.888;2023-03-05T02:19:45;4.70;99.90
37642;DHT22;23486;51.956;5.888;2023-03-05T02:22:18;4.70;99.90
37642;DHT22;23486;51.956;5.888;2023-03-05T02:24:44;4.70;99.90
37642;DHT22;23486;51.956;5.888;2023-03-05T02:27:12;4.70;99.90
37642;DHT22;23486;51.956;5.888;2023-03-05T02:29:42;4.70;99.90
37642;DHT22;23486;51.956;5.888;2023-03-05T02:32:07;4.60;99.90
37642;DHT22;23486;51.956;5.888;2023-03-05T02:34:34;4.70;99.90
37642;DHT22;23486;51.956;5.888;2023-03-05T02:37:00;4.60;99.90
37642;DHT22;23486;51.956;5.888;2023-03-05T02:39:32;4.70;99.90
37642;DHT22;23486;51.956;5.888;2023-03-05T02:41:57;4.60;99.90
37642;DHT22;23486;51.956;5.888;2023-03-05T02:44:23;4.60;99.90
37642;DHT22;23486;51.956;5.888;2023-03-05T02:46:48;4.60;99.90
37642;DHT22;23486;51.956;5.888;2023-03-05T02:49:14;4.60;99.90
37642;DHT22;23486;51.956;5.888;2023-03-05T02:51:40;4.60;99.90
37642;DHT22;23486;51.956;5.888;2023-03-05T02:54:06;4.60;99.90
37642;DHT22;23486;51.956;5.888;2023-03-05T02:56:34;4.60;99.90
37642;DHT22;23486;51.956;5.888;2023-03-05T02:59:02;4.60;99.90
37642;DHT22;23486;51.956;5.888;2023-03-05T03:01:28;4.60;99.90
37642;DHT22;23486;51.956;5.888;2023-03-05T03:03:54;4.60;99.90
37642;DHT22;23486;51.956;5.888;2023-03-05T03:06:19;4.60;99.90
37642;DHT22;23486;51.956;5.888;2023-03-05T03:08:45;4.50;99.90
37642;DHT22;23486;51.956;5.888;2023-03-05T03:11:11;4.50;99.90
37642;DHT22;23486;51.956;5.888;2023-03-05T03:13:40;4.50;99.90
37642;DHT22;23486;51.956;5.888;2023-03-05T03:16:16;4.50;99.90
37642;DHT22;23486;51.956;5.888;2023-03-05T03:18:42;4.50;99.90
37642;DHT22;23486;51.956;5.888;2023-03-05T03:21:15;4.50;99.90
37642;DHT22;23486;51.956;5.888;2023-03-05T03:23:44;4.50;99.90
37642;DHT22;23486;51.956;5.888;2023-03-05T03:28:35;4.50;99.90
37642;DHT22;23486;51.956;5.888;2023-03-05T03:31:07;4.50;99.90
37642;DHT22;23486;51.956;5.888;2023-03-05T03:33:32;4.50;99.90
37642;DHT22;23486;51.956;5.888;2023-03-05T03:35:58;4.50;99.90
37642;DHT22;23486;51.956;5.888;2023-03-05T03:38:23;4.50;99.90
37642;DHT22;23486;51.956;5.888;2023-03-05T03:40:49;4.50;99.90
37642;DHT22;23486;51.956;5.888;2023-03-05T03:43:14;4.40;99.90
37642;DHT22;23486;51.956;5.888;2023-03-05T03:45:42;4.40;99.90
37642;DHT22;23486;51.956;5.888;2023-03-05T03:48:08;4.40;99.90
37642;DHT22;23486;51.956;5.888;2023-03-05T03:50:37;4.50;99.90
37642;DHT22;23486;51.956;5.888;2023-03-05T03:53:03;4.40;99.90
37642;DHT22;23486;51.956;5.888;2023-03-05T03:55:32;4.50;99.90
37642;DHT22;23486;51.956;5.888;2023-03-05T03:57:58;4.50;99.90
37642;DHT22;23486;51.956;5.888;2023-03-05T04:00:26;4.40;99.90
37642;DHT22;23486;51.956;5.888;2023-03-05T04:02:52;4.40;99.90
37642;DHT22;23486;51.956;5.888;2023-03-05T04:05:17;4.40;99.90
37642;DHT22;23486;51.956;5.888;2023-03-05T04:07:43;4.40;99.90
37642;DHT22;23486;51.956;5.888;2023-03-05T04:10:10;4.40;99.90
37642;DHT22;23486;51.956;5.888;2023-03-05T04:12:36;4.40;99.90
37642;DHT22;23486;51.956;5.888;2023-03-05T04:15:01;4.30;99.90
37642;DHT22;23486;51.956;5.888;2023-03-05T04:17:27;4.40;99.90
37642;DHT22;23486;51.956;5.888;2023-03-05T04:19:53;4.40;99.90
37642;DHT22;23486;51.956;5.888;2023-03-05T04:22:18;4.40;99.90
37642;DHT22;23486;51.956;5.888;2023-03-05T04:24:44;4.30;99.90
37642;DHT22;23486;51.956;5.888;2023-03-05T04:27:10;4.30;99.90
37642;DHT22;23486;51.956;5.888;2023-03-05T04:29:36;4.30;99.90
37642;DHT22;23486;51.956;5.888;2023-03-05T04:32:02;4.30;99.90
37642;DHT22;23486;51.956;5.888;2023-03-05T04:34:27;4.30;99.90
37642;DHT22;23486;51.956;5.888;2023-03-05T04:36:53;4.30;99.90
37642;DHT22;23486;51.956;5.888;2023-03-05T04:39:18;4.30;99.90
37642;DHT22;23486;51.956;5.888;2023-03-05T04:41:46;4.40;99.90
37642;DHT22;23486;51.956;5.888;2023-03-05T04:44:12;4.30;99.90
37642;DHT22;23486;51.956;5.888;2023-03-05T04:46:38;4.40;99.90
37642;DHT22;23486;51.956;5.888;2023-03-05T04:49:12;4.30;99.90
37642;DHT22;23486;51.956;5.888;2023-03-05T04:51:38;4.30;99.90
37642;DHT22;23486;51.956;5.888;2023-03-05T04:54:03;4.40;99.90
37642;DHT22;23486;51.956;5.888;2023-03-05T04:56:32;4.40;99.90
37642;DHT22;23486;51.956;5.888;2023-03-05T04:58:58;4.40;99.90
37642;DHT22;23486;51.956;5.888;2023-03-05T05:01:23;4.30;99.90
37642;DHT22;23486;51.956;5.888;2023-03-05T05:03:49;4.30;99.90
37642;DHT22;23486;51.956;5.888;2023-03-05T05:06:14;4.40;99.90
37642;DHT22;23486;51.956;5.888;2023-03-05T05:08:40;4.40;99.90
37642;DHT22;23486;51.956;5.888;2023-03-05T05:11:07;4.40;99.90
37642;DHT22;23486;51.956;5.888;2023-03-05T05:13:33;4.20;99.90
37642;DHT22;23486;51.956;5.888;2023-03-05T05:15:58;4.30;99.90
37642;DHT22;23486;51.956;5.888;2023-03-05T05:18:25;4.30;99.90
37642;DHT22;23486;51.956;5.888;2023-03-05T05:20:51;4.40;99.90
37642;DHT22;23486;51.956;5.888;2023-03-05T05:23:17;4.30;99.90
37642;DHT22;23486;51.956;5.888;2023-03-05T05:25:42;4.30;99.90
37642;DHT22;23486;51.956;5.888;2023-03-05T05:28:09;4.30;99.90
37642;DHT22;23486;51.956;5.888;2023-03-05T05:30:35;4.30;99.90
37642;DHT22;23486;51.956;5.888;2023-03-05T05:33:01;4.30;99.90
37642;DHT22;23486;51.956;5.888;2023-03-05T05:35:29;4.30;99.90
37642;DHT22;23486;51.956;5.888;2023-03-05T05:37:55;4.30;99.90
37642;DHT22;23486;51.956;5.888;2023-03-05T05:40:20;4.30;99.90
37642;DHT22;23486;51.956;5.888;2023-03-05T05:42:46;4.30;99.90
37642;DHT22;23486;51.956;5.888;2023-03-05T05:45:12;4.30;99.90
37642;DHT22;23486;51.956;5.888;2023-03-05T05:47:37;4.30;99.90
37642;DHT22;23486;51.956;5.888;2023-03-05T05:50:04;4.30;99.90
37642;DHT22;23486;51.956;5.888;2023-03-05T05:52:30;4.30;99.90
37642;DHT22;23486;51.956;5.888;2023-03-05T05:54:55;4.30;99.90
37642;DHT22;23486;51.956;5.888;2023-03-05T05:57:21;4.30;99.90
37642;DHT22;23486;51.956;5.888;2023-03-05T05:59:47;4.30;99.90
37642;DHT22;23486;51.956;5.888;2023-03-05T06:02:12;4.30;99.90
37642;DHT22;23486;51.956;5.888;2023-03-05T06:04:38;4.20;99.90
37642;DHT22;23486;51.956;5.888;2023-03-05T06:07:06;4.30;99.90
37642;DHT22;23486;51.956;5.888;2023-03-05T06:09:34;4.20;99.90
37642;DHT22;23486;51.956;5.888;2023-03-05T06:12:06;4.20;99.90
37642;DHT22;23486;51.956;5.888;2023-03-05T06:14:32;4.20;99.90
37642;DHT22;23486;51.956;5.888;2023-03-05T06:16:57;4.20;99.90
37642;DHT22;23486;51.956;5.888;2023-03-05T06:19:23;4.20;99.90
37642;DHT22;23486;51.956;5.888;2023-03-05T06:21:49;4.20;99.90
37642;DHT22;23486;51.956;5.888;2023-03-05T06:24:14;4.20;99.90
37642;DHT22;23486;51.956;5.888;2023-03-05T06:26:40;4.20;99.90
37642;DHT22;23486;51.956;5.888;2023-03-05T06:29:05;4.20;99.90
37642;DHT22;23486;51.956;5.888;2023-03-05T06:31:31;4.20;99.90
37642;DHT22;23486;51.956;5.888;2023-03-05T06:33:59;4.20;99.90
37642;DHT22;23486;51.956;5.888;2023-03-05T06:36:28;4.20;99.90
37642;DHT22;23486;51.956;5.888;2023-03-05T06:38:54;4.10;99.90
37642;DHT22;23486;51.956;5.888;2023-03-05T06:41:26;4.20;99.90
37642;DHT22;23486;51.956;5.888;2023-03-05T06:43:51;4.20;99.90
37642;DHT22;23486;51.956;5.888;2023-03-05T06:46:20;4.20;99.90
37642;DHT22;23486;51.956;5.888;2023-03-05T06:48:47;4.20;99.90
37642;DHT22;23486;51.956;5.888;2023-03-05T06:51:21;4.20;99.90
37642;DHT22;23486;51.956;5.888;2023-03-05T06:53:47;4.20;99.90
37642;DHT22;23486;51.956;5.888;2023-03-05T06:56:13;4.20;99.90
37642;DHT22;23486;51.956;5.888;2023-03-05T06:58:42;4.20;99.90
37642;DHT22;23486;51.956;5.888;2023-03-05T07:01:08;4.20;99.90
37642;DHT22;23486;51.956;5.888;2023-03-05T07:03:34;4.20;99.90
37642;DHT22;23486;51.956;5.888;2023-03-05T07:06:04;4.20;99.90
37642;DHT22;23486;51.956;5.888;2023-03-05T07:08:31;4.30;99.90
37642;DHT22;23486;51.956;5.888;2023-03-05T07:10:56;4.30;99.90
37642;DHT22;23486;51.956;5.888;2023-03-05T07:13:22;4.30;99.90
37642;DHT22;23486;51.956;5.888;2023-03-05T07:15:48;4.40;99.90
37642;DHT22;23486;51.956;5.888;2023-03-05T07:18:13;4.40;99.90
37642;DHT22;23486;51.956;5.888;2023-03-05T07:20:39;4.50;99.90
37642;DHT22;23486;51.956;5.888;2023-03-05T07:23:04;4.50;99.90
37642;DHT22;23486;51.956;5.888;2023-03-05T07:25:30;4.50;99.90
37642;DHT22;23486;51.956;5.888;2023-03-05T07:27:56;4.60;99.90
37642;DHT22;23486;51.956;5.888;2023-03-05T07:30:22;4.60;99.90
37642;DHT22;23486;51.956;5.888;2023-03-05T07:32:48;4.60;99.90
37642;DHT22;23486;51.956;5.888;2023-03-05T07:35:14;4.60;99.90
37642;DHT22;23486;51.956;5.888;2023-03-05T07:37:39;4.70;99.90
37642;DHT22;23486;51.956;5.888;2023-03-05T07:40:05;4.70;99.90
37642;DHT22;23486;51.956;5.888;2023-03-05T07:42:32;4.80;99.90
37642;DHT22;23486;51.956;5.888;2023-03-05T07:44:57;4.90;99.90
37642;DHT22;23486;51.956;5.888;2023-03-05T07:47:23;4.90;99.90
37642;DHT22;23486;51.956;5.888;2023-03-05T07:49:49;4.90;99.90
37642;DHT22;23486;51.956;5.888;2023-03-05T07:52:15;5.10;99.90
37642;DHT22;23486;51.956;5.888;2023-03-05T07:54:41;5.00;99.90
37642;DHT22;23486;51.956;5.888;2023-03-05T07:57:07;5.10;99.90
37642;DHT22;23486;51.956;5.888;2023-03-05T07:59:33;5.10;99.90
37642;DHT22;23486;51.956;5.888;2023-03-05T08:01:59;5.20;99.90
37642;DHT22;23486;51.956;5.888;2023-03-05T08:04:28;5.20;99.90
37642;DHT22;23486;51.956;5.888;2023-03-05T08:06:56;5.20;99.90
37642;DHT22;23486;51.956;5.888;2023-03-05T08:09:22;5.20;99.90
37642;DHT22;23486;51.956;5.888;2023-03-05T08:11:48;5.20;99.90
37642;DHT22;23486;51.956;5.888;2023-03-05T08:14:13;5.20;99.90
37642;DHT22;23486;51.956;5.888;2023-03-05T08:16:39;5.20;99.90
37642;DHT22;23486;51.956;5.888;2023-03-05T08:19:08;5.20;99.90
37642;DHT22;23486;51.956;5.888;2023-03-05T08:21:37;5.20;99.90
37642;DHT22;23486;51.956;5.888;2023-03-05T08:24:07;5.20;99.90
37642;DHT22;23486;51.956;5.888;2023-03-05T08:26:36;5.30;99.90
37642;DHT22;23486;51.956;5.888;2023-03-05T08:29:03;5.40;99.90
37642;DHT22;23486;51.956;5.888;2023-03-05T08:31:29;5.40;99.90
37642;DHT22;23486;51.956;5.888;2023-03-05T08:33:59;5.40;99.90
37642;DHT22;23486;51.956;5.888;2023-03-05T08:36:25;5.40;99.90
37642;DHT22;23486;51.956;5.888;2023-03-05T08:38:51;5.50;99.90
37642;DHT22;23486;51.956;5.888;2023-03-05T08:41:18;5.60;99.90
37642;DHT22;23486;51.956;5.888;2023-03-05T08:43:43;5.60;99.90
37642;DHT22;23486;51.956;5.888;2023-03-05T08:46:11;5.60;99.90
37642;DHT22;23486;51.956;5.888;2023-03-05T08:48:36;5.60;99.90
37642;DHT22;23486;51.956;5.888;2023-03-05T08:51:11;5.60;99.90
37642;DHT22;23486;51.956;5.888;2023-03-05T08:53:37;5.70;99.90
37642;DHT22;23486;51.956;5.888;2023-03-05T08:56:03;5.60;99.90
37642;DHT22;23486;51.956;5.888;2023-03-05T08:58:29;5.70;99.90
37642;DHT22;23486;51.956;5.888;2023-03-05T09:00:55;5.80;99.90
37642;DHT22;23486;51.956;5.888;2023-03-05T09:03:21;5.80;99.90
37642;DHT22;23486;51.956;5.888;2023-03-05T09:05:47;5.90;99.90
37642;DHT22;23486;51.956;5.888;2023-03-05T09:08:13;6.00;99.90
37642;DHT22;23486;51.956;5.888;2023-03-05T09:10:40;6.10;99.90
37642;DHT22;23486;51.956;5.888;2023-03-05T09:13:07;6.10;99.90
37642;DHT22;23486;51.956;5.888;2023-03-05T09:15:36;6.20;99.90
37642;DHT22;23486;51.956;5.888;2023-03-05T09:18:01;6.20;99.90
37642;DHT22;23486;51.956;5.888;2023-03-05T09:20:27;6.20;99.90
37642;DHT22;23486;51.956;5.888;2023-03-05T09:22:53;6.20;99.90
37642;DHT22;23486;51.956;5.888;2023-03-05T09:25:19;6.30;99.90
37642;DHT22;23486;51.956;5.888;2023-03-05T09:27:45;6.30;99.90
37642;DHT22;23486;51.956;5.888;2023-03-05T09:30:11;6.30;99.90
37642;DHT22;23486;51.956;5.888;2023-03-05T09:32:37;6.30;99.90
37642;DHT22;23486;51.956;5.888;2023-03-05T09:35:03;6.40;99.90
37642;DHT22;23486;51.956;5.888;2023-03-05T09:37:29;6.40;99.90
37642;DHT22;23486;51.956;5.888;2023-03-05T09:39:55;6.40;99.90
37642;DHT22;23486;51.956;5.888;2023-03-05T09:45:26;6.50;99.90
37642;DHT22;23486;51.956;5.888;2023-03-05T09:48:19;6.50;99.90
37642;DHT22;23486;51.956;5.888;2023-03-05T09:50:51;6.50;99.90
37642;DHT22;23486;51.956;5.888;2023-03-05T09:53:44;6.60;99.90
37642;DHT22;23486;51.956;5.888;2023-03-05T09:56:23;6.70;99.90
37642;DHT22;23486;51.956;5.888;2023-03-05T09:58:55;6.70;99.90
37642;DHT22;23486;51.956;5.888;2023-03-05T10:01:32;6.80;99.90
37642;DHT22;23486;51.956;5.888;2023-03-05T10:04:13;6.80;99.90
37642;DHT22;23486;51.956;5.888;2023-03-05T10:06:55;6.90;99.90
37642;DHT22;23486;51.956;5.888;2023-03-05T10:12:22;7.00;99.90
37642;DHT22;23486;51.956;5.888;2023-03-05T10:14:52;7.00;99.90
37642;DHT22;23486;51.956;5.888;2023-03-05T10:23:23;7.00;99.90
37642;DHT22;23486;51.956;5.888;2023-03-05T10:26:17;7.00;99.90
37642;DHT22;23486;51.956;5.888;2023-03-05T10:32:01;7.00;99.90
37642;DHT22;23486;51.956;5.888;2023-03-05T10:45:53;7.10;99.90
37642;DHT22;23486;51.956;5.888;2023-03-05T10:48:42;7.10;99.90
37642;DHT22;23486;51.956;5.888;2023-03-05T10:53:58;7.20;99.90
37642;DHT22;23486;51.956;5.888;2023-03-05T10:56:26;7.30;99.90
37642;DHT22;23486;51.956;5.888;2023-03-05T10:58:52;7.30;99.90
37642;DHT22;23486;51.956;5.888;2023-03-05T11:01:28;7.40;99.90
37642;DHT22;23486;51.956;5.888;2023-03-05T11:04:05;7.40;99.90
37642;DHT22;23486;51.956;5.888;2023-03-05T11:06:35;7.50;99.90
37642;DHT22;23486;51.956;5.888;2023-03-05T11:09:28;7.50;99.90
37642;DHT22;23486;51.956;5.888;2023-03-05T11:12:19;7.50;99.90
37642;DHT22;23486;51.956;5.888;2023-03-05T11:17:34;7.70;99.90
37642;DHT22;23486;51.956;5.888;2023-03-05T11:20:32;7.70;99.90
37642;DHT22;23486;51.956;5.888;2023-03-05T11:25:30;7.90;99.90
37642;DHT22;23486;51.956;5.888;2023-03-05T11:27:58;8.00;99.90
37642;DHT22;23486;51.956;5.888;2023-03-05T11:30:28;8.10;99.90
37642;DHT22;23486;51.956;5.888;2023-03-05T11:35:37;8.20;99.90
37642;DHT22;23486;51.956;5.888;2023-03-05T11:38:04;8.30;99.90
37642;DHT22;23486;51.956;5.888;2023-03-05T11:40:32;8.30;99.90
37642;DHT22;23486;51.956;5.888;2023-03-05T11:43:03;8.40;99.90
37642;DHT22;23486;51.956;5.888;2023-03-05T11:45:31;8.50;99.90
37642;DHT22;23486;51.956;5.888;2023-03-05T11:48:19;8.50;99.90
37642;DHT22;23486;51.956;5.888;2023-03-05T11:50:50;8.40;99.90
37642;DHT22;23486;51.956;5.888;2023-03-05T11:53:21;8.50;99.90
37642;DHT22;23486;51.956;5.888;2023-03-05T11:55:51;8.60;99.90
37642;DHT22;23486;51.956;5.888;2023-03-05T11:58:31;8.70;99.90
37642;DHT22;23486;51.956;5.888;2023-03-05T12:01:02;8.80;99.90
37642;DHT22;23486;51.956;5.888;2023-03-05T12:03:35;8.70;99.90
37642;DHT22;23486;51.956;5.888;2023-03-05T12:08:41;8.50;99.90
37642;DHT22;23486;51.956;5.888;2023-03-05T12:11:16;8.40;99.90
37642;DHT22;23486;51.956;5.888;2023-03-05T12:13:49;8.30;99.90
37642;DHT22;23486;51.956;5.888;2023-03-05T12:21:40;8.10;99.90
37642;DHT22;23486;51.956;5.888;2023-03-05T12:24:38;8.10;99.90
37642;DHT22;23486;51.956;5.888;2023-03-05T12:27:05;8.20;99.90
37642;DHT22;23486;51.956;5.888;2023-03-05T12:29:50;8.20;99.90
37642;DHT22;23486;51.956;5.888;2023-03-05T12:34:57;8.40;99.90
37642;DHT22;23486;51.956;5.888;2023-03-05T12:39:56;8.60;99.90
37642;DHT22;23486;51.956;5.888;2023-03-05T12:47:41;8.60;99.90
37642;DHT22;23486;51.956;5.888;2023-03-05T12:58:36;8.30;99.90
37642;DHT22;23486;51.956;5.888;2023-03-05T13:03:49;7.90;99.90
37642;DHT22;23486;51.956;5.888;2023-03-05T13:06:36;7.90;99.90
37642;DHT22;23486;51.956;5.888;2023-03-05T13:09:28;7.90;99.90
37642;DHT22;23486;51.956;5.888;2023-03-05T13:11:59;8.00;99.90
37642;DHT22;23486;51.956;5.888;2023-03-05T13:14:36;8.00;99.90
37642;DHT22;23486;51.956;5.888;2023-03-05T13:17:28;8.00;99.90
37642;DHT22;23486;51.956;5.888;2023-03-05T13:19:55;8.00;99.90
37642;DHT22;23486;51.956;5.888;2023-03-05T13:22:21;7.90;99.90
37642;DHT22;23486;51.956;5.888;2023-03-05T13:27:33;7.90;99.90
37642;DHT22;23486;51.956;5.888;2023-03-05T13:30:00;7.80;99.90
37642;DHT22;23486;51.956;5.888;2023-03-05T13:32:30;7.90;99.90
37642;DHT22;23486;51.956;5.888;2023-03-05T13:34:58;7.90;99.90
37642;DHT22;23486;51.956;5.888;2023-03-05T13:37:32;7.90;99.90
37642;DHT22;23486;51.956;5.888;2023-03-05T13:40:18;7.90;99.90
37642;DHT22;23486;51.956;5.888;2023-03-05T13:42:44;7.90;99.90
37642;DHT22;23486;51.956;5.888;2023-03-05T13:47:53;7.70;99.90
37642;DHT22;23486;51.956;5.888;2023-03-05T13:50:23;7.70;99.90
37642;DHT22;23486;51.956;5.888;2023-03-05T13:53:14;7.70;99.90
37642;DHT22;23486;51.956;5.888;2023-03-05T13:55:42;7.70;99.90
37642;DHT22;23486;51.956;5.888;2023-03-05T14:06:55;7.80;99.90
37642;DHT22;23486;51.956;5.888;2023-03-05T14:09:25;7.80;99.90
37642;DHT22;23486;51.956;5.888;2023-03-05T14:12:19;7.90;99.90
37642;DHT22;23486;51.956;5.888;2023-03-05T14:14:46;7.90;99.90
37642;DHT22;23486;51.956;5.888;2023-03-05T14:17:31;7.90;99.90
37642;DHT22;23486;51.956;5.888;2023-03-05T14:20:16;7.90;99.90
37642;DHT22;23486;51.956;5.888;2023-03-05T14:22:46;7.90;99.90
37642;DHT22;23486;51.956;5.888;2023-03-05T14:28:03;7.90;99.90
37642;DHT22;23486;51.956;5.888;2023-03-05T14:30:28;7.90;99.90
37642;DHT22;23486;51.956;5.888;2023-03-05T14:32:55;7.90;99.90
37642;DHT22;23486;51.956;5.888;2023-03-05T14:35:25;8.00;99.90
37642;DHT22;23486;51.956;5.888;2023-03-05T14:37:54;8.00;99.90
37642;DHT22;23486;51.956;5.888;2023-03-05T14:40:41;8.00;99.90
37642;DHT22;23486;51.956;5.888;2023-03-05T14:43:15;8.00;99.90
37642;DHT22;23486;51.956;5.888;2023-03-05T14:45:43;8.00;99.90
37642;DHT22;23486;51.956;5.888;2023-03-05T14:48:11;8.00;99.90
37642;DHT22;23486;51.956;5.888;2023-03-05T14:50:57;8.10;99.90
37642;DHT22;23486;51.956;5.888;2023-03-05T14:53:25;8.10;99.90
37642;DHT22;23486;51.956;5.888;2023-03-05T14:55:53;8.10;99.90
37642;DHT22;23486;51.956;5.888;2023-03-05T14:58:25;8.10;99.90
37642;DHT22;23486;51.956;5.888;2023-03-05T15:00:52;8.10;99.90
37642;DHT22;23486;51.956;5.888;2023-03-05T15:03:20;8.10;99.90
37642;DHT22;23486;51.956;5.888;2023-03-05T15:05:48;8.10;99.90
37642;DHT22;23486;51.956;5.888;2023-03-05T15:08:27;8.10;99.90
37642;DHT22;23486;51.956;5.888;2023-03-05T15:10:53;8.10;99.90
37642;DHT22;23486;51.956;5.888;2023-03-05T15:13:19;8.10;99.90
37642;DHT22;23486;51.956;5.888;2023-03-05T15:15:46;8.00;99.90
37642;DHT22;23486;51.956;5.888;2023-03-05T15:18:13;7.90;99.90
37642;DHT22;23486;51.956;5.888;2023-03-05T15:20:40;7.90;99.90
37642;DHT22;23486;51.956;5.888;2023-03-05T15:23:09;7.90;99.90
37642;DHT22;23486;51.956;5.888;2023-03-05T15:25:34;7.80;99.90
37642;DHT22;23486;51.956;5.888;2023-03-05T15:28:00;7.70;99.90
37642;DHT22;23486;51.956;5.888;2023-03-05T15:30:29;7.70;99.90
37642;DHT22;23486;51.956;5.888;2023-03-05T15:32:56;7.70;99.90
37642;DHT22;23486;51.956;5.888;2023-03-05T15:35:23;7.70;99.90
37642;DHT22;23486;51.956;5.888;2023-03-05T15:37:49;7.60;99.90
37642;DHT22;23486;51.956;5.888;2023-03-05T15:40:15;7.50;99.90
37642;DHT22;23486;51.956;5.888;2023-03-05T15:42:41;7.60;99.90
37642;DHT22;23486;51.956;5.888;2023-03-05T15:45:07;7.50;99.90
37642;DHT22;23486;51.956;5.888;2023-03-05T15:47:33;7.50;99.90
37642;DHT22;23486;51.956;5.888;2023-03-05T15:49:58;7.50;99.90
37642;DHT22;23486;51.956;5.888;2023-03-05T15:52:24;7.40;99.90
37642;DHT22;23486;51.956;5.888;2023-03-05T15:54:50;7.40;99.90
37642;DHT22;23486;51.956;5.888;2023-03-05T15:57:15;7.30;99.90
37642;DHT22;23486;51.956;5.888;2023-03-05T15:59:41;7.30;99.90
37642;DHT22;23486;51.956;5.888;2023-03-05T16:02:07;7.30;99.90
37642;DHT22;23486;51.956;5.888;2023-03-05T16:04:32;7.30;99.90
37642;DHT22;23486;51.956;5.888;2023-03-05T16:07:00;7.30;99.90
37642;DHT22;23486;51.956;5.888;2023-03-05T16:09:31;7.20;99.90
37642;DHT22;23486;51.956;5.888;2023-03-05T16:11:58;7.20;99.90
37642;DHT22;23486;51.956;5.888;2023-03-05T16:14:25;7.20;99.90
37642;DHT22;23486;51.956;5.888;2023-03-05T16:16:52;7.20;99.90
37642;DHT22;23486;51.956;5.888;2023-03-05T16:19:19;7.20;99.90
37642;DHT22;23486;51.956;5.888;2023-03-05T16:21:45;7.10;99.90
37642;DHT22;23486;51.956;5.888;2023-03-05T16:24:11;7.00;99.90
37642;DHT22;23486;51.956;5.888;2023-03-05T16:26:39;7.00;99.90
37642;DHT22;23486;51.956;5.888;2023-03-05T16:29:05;7.00;99.90
37642;DHT22;23486;51.956;5.888;2023-03-05T16:31:32;7.00;99.90
37642;DHT22;23486;51.956;5.888;2023-03-05T16:33:59;7.00;99.90
37642;DHT22;23486;51.956;5.888;2023-03-05T16:36:27;7.00;99.90
37642;DHT22;23486;51.956;5.888;2023-03-05T16:38:56;7.00;99.90
37642;DHT22;23486;51.956;5.888;2023-03-05T16:41:22;7.00;99.90
37642;DHT22;23486;51.956;5.888;2023-03-05T16:43:49;7.00;99.90
37642;DHT22;23486;51.956;5.888;2023-03-05T16:46:15;6.90;99.90
37642;DHT22;23486;51.956;5.888;2023-03-05T16:48:42;7.00;99.90
37642;DHT22;23486;51.956;5.888;2023-03-05T16:51:09;6.90;99.90
37642;DHT22;23486;51.956;5.888;2023-03-05T16:53:34;6.90;99.90
37642;DHT22;23486;51.956;5.888;2023-03-05T16:56:02;6.80;99.90
37642;DHT22;23486;51.956;5.888;2023-03-05T16:58:28;6.70;99.90
37642;DHT22;23486;51.956;5.888;2023-03-05T17:00:54;6.70;99.90
37642;DHT22;23486;51.956;5.888;2023-03-05T17:03:19;6.70;99.90
37642;DHT22;23486;51.956;5.888;2023-03-05T17:05:45;6.60;99.90
37642;DHT22;23486;51.956;5.888;2023-03-05T17:08:11;6.50;99.90
37642;DHT22;23486;51.956;5.888;2023-03-05T17:10:36;6.40;99.90
37642;DHT22;23486;51.956;5.888;2023-03-05T17:13:02;6.40;99.90
37642;DHT22;23486;51.956;5.888;2023-03-05T17:15:28;6.40;99.90
37642;DHT22;23486;51.956;5.888;2023-03-05T17:17:53;6.40;99.90
37642;DHT22;23486;51.956;5.888;2023-03-05T17:20:19;6.40;99.90
37642;DHT22;23486;51.956;5.888;2023-03-05T17:22:45;6.30;99.90